Aérodrome :
LOGIN :

S'inscrire | Disclaimer

   EN    FR    IT 

 










Légende :    VFR   VFR Marginal   IFR   IFR Intensif   IFR Très Intensif
Visi : 
Plafond : 
>= 8 km
>= 3000ft
5 à 8 km
1000 à 3000 ft
1500m à 5 km
500 à 1000 ft
800 à 1500m
200 à 500 ft
< 800m
< 200 ft
Symboles :   Orages  Brouillard  Fortes neiges  Fortes précipitations  Vent > 20 kt
SIGMETs :   Divers  Orages  Givrage  Turbulence  Onde Orograph.  Cendres Volcan.






- Altitude de l'aérodrome : 776 ft
- Code IATA : RMS


ETAR - Ramstein Air Base

DERNIER METAR :
  • 161756Z 24007KT 9999 OVC010 M04/M04 A3017 RMK AO2A CIG 010V012 CIG 009 RWY08 SLP239 T10371038 10001 21037 57016 FZRANO $

METARs EXPIRÉS :
  • 161726Z 24007KT 9999 OVC012 M03/M03 A3018 RMK AO2A CIG 011 RWY08 SLP241 FZRANO $
  • 161656Z 23006KT 9999 BKN011 BKN019 OVC024 M02/M03 A3019 RMK AO2A SLP244 T10251026 FZRANO $
  • 161611Z 24004KT 9999 OVC011 M02/M02 A3020 RMK AO2A SLP248 FZRANO $
  • 161556Z 21006KT 9999 BKN014 BKN019 M02/M02 A3021 RMK AO2A CIG 014V019 BKN014 V FEW CIG 012 RWY08 SLP251 T10211022 FZRANO $
  • 161544Z 21006KT 9999 FEW014 BKN018 M02/M02 A3021 RMK AO2A CIG 012 RWY08 SLP251 FZRANO $

TAF TAF ETAR
Valide du 16 à 18h jusqu'au 18 à 00h UTC


161800Z 1618/1724 21006KT 9999 OVC015 620153 QNH3013INS
BECMG 1618/1619 22009KT 5000 -SN SCT007 OVC015 620153 QNH3007INS
BECMG 1619/1620 22009KT 3200 -SN OVC007 650077 QNH3000INS
TEMPO 1620/1702 0800 SN OVC005 650058
BECMG 1702/1703 26006KT 5000 BR OVC005 620053 QNH2997INS
TEMPO 1703/1706 3200 -FZDZ 660001
BECMG 1707/1708 27010G15KT 5000 -SHRASN BKN015 610154 QNH2999INS TX02/1714Z TNM03/1619Z



MET'MAP, la Météo Aéronautique d'un coup d'oeil ! - Copyright ORBIFLY Décembre 2007 - Disclaimer

ORBIFLY MET'MAP TEAM :

Programmation & Développement : Alexandra Zaïnal
Sur une idée originale de : Baudouin d'Aumeries
Assistance à la programmation : Marc-Olivier Méhu
Soutien technique & logistique : Manuel Goepfert

Contact : metmap@orbifly.com




SOURCES & CREDITS :

   NOAA